Main page
METAR-TAF:

METAR-TAF

Airports :

Kadala Airport

Chita, Russia

latitude: 52-05N, longitude: 113-29E, elevation: 685 m

Current weather observation

The report was made 20 minutes ago, at 19:00 UTC
Wind 2 kt from variable directions
Temperature 7°C
Humidity 93%
Pressure 1010 hPa
Visibility 10 km or more

METAR: UIAA 181900Z VRB01MPS 9999 NSC 07/06 Q1010 R29/190160 NOSIG RMK QFE699/0933

Time: 04:20 (19:20 UTC)

Forecast

The report was made 2 hours and 20 minutes ago, at 17:00 UTC
Forecast valid from 18 at 18 UTC to 19 at 18 UTC
Wind 6 kt from the West/Northwest
Visibility 10 km or more
Temporary
from 18 at 18 UTC to 19 at 01 UTC
Visibility: 0500 m
at a height of 100 ft
fog

TAF: UIAA 181700Z 1818/1918 30003MPS 9999 NSC TEMPO 1818/1901 0500 FG VV001

Weather observations and forecasts of more than 4000 airports (METAR and TAF reports).

The available stations are represented by yellow and red dots on the map.

Hover mouse over dot to see the name of the station.

Then click to see weather observations and forecasts.

To change the map : click on the green buttons with a black cross to zoom in, on the green button with a dash to zoom out, or on the green arrows for adjacent maps.


METAR-TAF: